sensor_id;sensor_type;location;lat;lon;timestamp;pressure;altitude;pressure_sealevel;temperature;humidity
47054;BME280;32811;52.382;5.270;2022-10-16T00:02:20;100906.44;;;11.38;100.00
47054;BME280;32811;52.382;5.270;2022-10-16T00:04:46;100898.69;;;11.34;100.00
47054;BME280;32811;52.382;5.270;2022-10-16T00:07:13;100891.81;;;11.33;100.00
47054;BME280;32811;52.382;5.270;2022-10-16T00:09:39;100897.00;;;11.39;100.00
47054;BME280;32811;52.382;5.270;2022-10-16T00:12:06;100886.66;;;11.34;100.00
47054;BME280;32811;52.382;5.270;2022-10-16T00:14:33;100882.31;;;11.33;100.00
47054;BME280;32811;52.382;5.270;2022-10-16T00:17:00;100895.25;;;11.39;100.00
47054;BME280;32811;52.382;5.270;2022-10-16T00:19:26;100885.78;;;11.35;100.00
47054;BME280;32811;52.382;5.270;2022-10-16T00:21:53;100894.41;;;11.39;100.00
47054;BME280;32811;52.382;5.270;2022-10-16T00:24:19;100894.41;;;11.39;100.00
47054;BME280;32811;52.382;5.270;2022-10-16T00:26:49;100891.84;;;11.43;100.00
47054;BME280;32811;52.382;5.270;2022-10-16T00:29:15;100882.38;;;11.46;100.00
47054;BME280;32811;52.382;5.270;2022-10-16T00:31:42;100871.13;;;11.50;100.00
47054;BME280;32811;52.382;5.270;2022-10-16T00:34:08;100867.72;;;11.61;100.00
47054;BME280;32811;52.382;5.270;2022-10-16T00:36:35;100882.38;;;11.76;100.00
47054;BME280;32811;52.382;5.270;2022-10-16T00:39:02;100888.41;;;11.80;100.00
47054;BME280;32811;52.382;5.270;2022-10-16T00:41:30;100887.53;;;11.69;100.00
47054;BME280;32811;52.382;5.270;2022-10-16T00:43:58;100888.41;;;11.64;100.00
47054;BME280;32811;52.382;5.270;2022-10-16T00:46:29;100882.38;;;11.67;100.00
47054;BME280;32811;52.382;5.270;2022-10-16T00:49:13;100883.22;;;11.69;100.00
47054;BME280;32811;52.382;5.270;2022-10-16T00:51:43;100889.25;;;11.85;100.00
47054;BME280;32811;52.382;5.270;2022-10-16T00:54:17;100884.13;;;11.94;100.00
47054;BME280;32811;52.382;5.270;2022-10-16T00:56:44;100878.06;;;11.84;100.00
47054;BME280;32811;52.382;5.270;2022-10-16T00:59:28;100872.88;;;11.84;100.00
47054;BME280;32811;52.382;5.270;2022-10-16T01:01:55;100886.69;;;11.80;100.00
47054;BME280;32811;52.382;5.270;2022-10-16T01:04:23;100881.53;;;11.79;100.00
47054;BME280;32811;52.382;5.270;2022-10-16T01:15:03;100878.94;;;11.83;100.00
47054;BME280;32811;52.382;5.270;2022-10-16T01:17:45;100884.09;;;11.77;100.00
47054;BME280;32811;52.382;5.270;2022-10-16T01:23:15;100880.69;;;11.95;100.00
47054;BME280;32811;52.382;5.270;2022-10-16T01:26:12;100875.50;;;11.89;100.00
47054;BME280;32811;52.382;5.270;2022-10-16T01:29:09;100891.88;;;11.90;100.00
47054;BME280;32811;52.382;5.270;2022-10-16T01:31:40;100884.13;;;12.02;100.00
47054;BME280;32811;52.382;5.270;2022-10-16T01:34:16;100880.69;;;12.06;100.00
47054;BME280;32811;52.382;5.270;2022-10-16T01:36:55;100872.91;;;11.95;100.00
47054;BME280;32811;52.382;5.270;2022-10-16T01:39:26;100879.81;;;11.89;100.00
47054;BME280;32811;52.382;5.270;2022-10-16T01:42:01;100867.72;;;11.88;100.00
47054;BME280;32811;52.382;5.270;2022-10-16T01:44:32;100884.09;;;11.85;100.00
47054;BME280;32811;52.382;5.270;2022-10-16T01:47:00;100888.41;;;11.81;100.00
47054;BME280;32811;52.382;5.270;2022-10-16T01:49:30;100878.97;;;11.88;100.00
47054;BME280;32811;52.382;5.270;2022-10-16T01:52:00;100875.50;;;11.97;100.00
47054;BME280;32811;52.382;5.270;2022-10-16T01:54:30;100878.94;;;11.94;100.00
47054;BME280;32811;52.382;5.270;2022-10-16T01:56:59;100888.44;;;11.89;100.00
47054;BME280;32811;52.382;5.270;2022-10-16T01:59:29;100889.25;;;11.85;100.00
47054;BME280;32811;52.382;5.270;2022-10-16T02:02:04;100887.53;;;11.69;100.00
47054;BME280;32811;52.382;5.270;2022-10-16T02:07:19;100894.44;;;11.76;100.00
47054;BME280;32811;52.382;5.270;2022-10-16T02:09:46;100894.44;;;11.73;100.00
47054;BME280;32811;52.382;5.270;2022-10-16T02:12:23;100895.28;;;11.76;100.00
47054;BME280;32811;52.382;5.270;2022-10-16T02:14:52;100897.88;;;11.76;100.00
47054;BME280;32811;52.382;5.270;2022-10-16T02:17:20;100889.28;;;11.68;100.00
47054;BME280;32811;52.382;5.270;2022-10-16T02:19:48;100898.75;;;11.74;100.00
47054;BME280;32811;52.382;5.270;2022-10-16T02:22:24;100900.47;;;11.67;100.00
47054;BME280;32811;52.382;5.270;2022-10-16T02:25:17;100906.50;;;11.66;100.00
47054;BME280;32811;52.382;5.270;2022-10-16T02:28:01;100909.09;;;11.61;100.00
47054;BME280;32811;52.382;5.270;2022-10-16T02:33:07;100909.09;;;11.57;100.00
47054;BME280;32811;52.382;5.270;2022-10-16T02:35:35;100915.09;;;11.53;100.00
47054;BME280;32811;52.382;5.270;2022-10-16T02:38:03;100915.06;;;11.50;100.00
47054;BME280;32811;52.382;5.270;2022-10-16T02:40:30;100916.81;;;11.48;100.00
47054;BME280;32811;52.382;5.270;2022-10-16T02:42:57;100915.94;;;11.52;100.00
47054;BME280;32811;52.382;5.270;2022-10-16T02:45:24;100921.13;;;11.52;100.00
47054;BME280;32811;52.382;5.270;2022-10-16T02:47:51;100908.22;;;11.46;100.00
47054;BME280;32811;52.382;5.270;2022-10-16T02:50:18;100919.41;;;11.51;100.00
47054;BME280;32811;52.382;5.270;2022-10-16T02:52:45;100918.53;;;11.49;100.00
47054;BME280;32811;52.382;5.270;2022-10-16T02:55:11;100928.88;;;11.49;100.00
47054;BME280;32811;52.382;5.270;2022-10-16T02:57:38;100919.41;;;11.51;100.00
47054;BME280;32811;52.382;5.270;2022-10-16T03:00:09;100921.97;;;11.54;100.00
47054;BME280;32811;52.382;5.270;2022-10-16T03:02:35;100933.19;;;11.53;100.00
47054;BME280;32811;52.382;5.270;2022-10-16T03:05:02;100934.06;;;11.64;100.00
47054;BME280;32811;52.382;5.270;2022-10-16T03:07:28;100932.34;;;11.57;100.00
47054;BME280;32811;52.382;5.270;2022-10-16T03:09:55;100925.41;;;11.50;100.00
47054;BME280;32811;52.382;5.270;2022-10-16T03:12:21;100937.50;;;11.48;100.00
47054;BME280;32811;52.382;5.270;2022-10-16T03:14:48;100931.44;;;11.39;100.00
47054;BME280;32811;52.382;5.270;2022-10-16T03:17:14;100938.38;;;11.48;100.00
47054;BME280;32811;52.382;5.270;2022-10-16T03:19:43;100939.22;;;11.46;100.00
47054;BME280;32811;52.382;5.270;2022-10-16T03:22:09;100932.31;;;11.45;100.00
47054;BME280;32811;52.382;5.270;2022-10-16T03:24:36;100932.28;;;11.35;100.00
47054;BME280;32811;52.382;5.270;2022-10-16T03:27:03;100929.72;;;11.32;100.00
47054;BME280;32811;52.382;5.270;2022-10-16T03:29:29;100934.00;;;11.30;100.00
47054;BME280;32811;52.382;5.270;2022-10-16T03:31:56;100935.72;;;11.31;100.00
47054;BME280;32811;52.382;5.270;2022-10-16T03:34:22;100928.88;;;11.41;100.00
47054;BME280;32811;52.382;5.270;2022-10-16T03:36:49;100933.16;;;11.45;100.00
47054;BME280;32811;52.382;5.270;2022-10-16T03:39:16;100933.16;;;11.42;100.00
47054;BME280;32811;52.382;5.270;2022-10-16T03:41:43;100945.22;;;11.40;100.00
47054;BME280;32811;52.382;5.270;2022-10-16T03:44:09;100940.06;;;11.41;100.00
47054;BME280;32811;52.382;5.270;2022-10-16T03:46:36;100949.53;;;11.39;100.00
47054;BME280;32811;52.382;5.270;2022-10-16T03:49:03;100954.72;;;11.36;100.00
47054;BME280;32811;52.382;5.270;2022-10-16T03:51:34;100943.47;;;11.36;100.00
47054;BME280;32811;52.382;5.270;2022-10-16T03:54:01;100946.09;;;11.47;100.00
47054;BME280;32811;52.382;5.270;2022-10-16T03:56:28;100954.72;;;11.49;100.00
47054;BME280;32811;52.382;5.270;2022-10-16T03:58:54;100959.88;;;11.47;100.00
47054;BME280;32811;52.382;5.270;2022-10-16T04:01:21;100958.13;;;11.38;100.00
47054;BME280;32811;52.382;5.270;2022-10-16T04:03:47;100959.88;;;11.39;100.00
47054;BME280;32811;52.382;5.270;2022-10-16T04:06:14;100962.47;;;11.46;100.00
47054;BME280;32811;52.382;5.270;2022-10-16T04:08:42;100962.47;;;11.46;100.00
47054;BME280;32811;52.382;5.270;2022-10-16T04:11:10;100972.78;;;11.42;100.00
47054;BME280;32811;52.382;5.270;2022-10-16T04:13:36;100978.84;;;11.41;100.00
47054;BME280;32811;52.382;5.270;2022-10-16T04:16:04;100976.22;;;11.40;100.00
47054;BME280;32811;52.382;5.270;2022-10-16T04:18:30;100978.78;;;11.29;100.00
47054;BME280;32811;52.382;5.270;2022-10-16T04:21:02;100983.13;;;11.39;100.00
47054;BME280;32811;52.382;5.270;2022-10-16T04:23:28;100982.25;;;11.40;100.00
47054;BME280;32811;52.382;5.270;2022-10-16T04:25:55;100979.69;;;11.37;100.00
47054;BME280;32811;52.382;5.270;2022-10-16T04:28:21;100985.72;;;11.44;100.00
47054;BME280;32811;52.382;5.270;2022-10-16T04:30:48;100996.06;;;11.42;100.00
47054;BME280;32811;52.382;5.270;2022-10-16T04:33:15;100980.53;;;11.30;100.00
47054;BME280;32811;52.382;5.270;2022-10-16T04:35:41;101004.69;;;11.45;100.00
47054;BME280;32811;52.382;5.270;2022-10-16T04:38:08;101005.53;;;11.39;100.00
47054;BME280;32811;52.382;5.270;2022-10-16T04:40:34;101008.97;;;11.39;100.00
47054;BME280;32811;52.382;5.270;2022-10-16T04:43:04;101005.53;;;11.42;100.00
47054;BME280;32811;52.382;5.270;2022-10-16T04:45:30;101003.78;;;11.35;100.00
47054;BME280;32811;52.382;5.270;2022-10-16T04:47:58;101014.13;;;11.35;100.00
47054;BME280;32811;52.382;5.270;2022-10-16T04:50:25;101014.97;;;11.34;100.00
47054;BME280;32811;52.382;5.270;2022-10-16T04:52:51;101011.56;;;11.42;100.00
47054;BME280;32811;52.382;5.270;2022-10-16T04:55:18;101000.31;;;11.27;100.00
47054;BME280;32811;52.382;5.270;2022-10-16T04:57:45;101016.72;;;11.35;100.00
47054;BME280;32811;52.382;5.270;2022-10-16T05:00:12;101009.84;;;11.37;100.00
47054;BME280;32811;52.382;5.270;2022-10-16T05:02:39;101021.91;;;11.36;100.00
47054;BME280;32811;52.382;5.270;2022-10-16T05:05:06;101019.31;;;11.36;100.00
47054;BME280;32811;52.382;5.270;2022-10-16T05:07:33;101025.31;;;11.38;100.00
47054;BME280;32811;52.382;5.270;2022-10-16T05:09:59;101034.84;;;11.41;100.00
47054;BME280;32811;52.382;5.270;2022-10-16T05:12:26;101030.53;;;11.46;100.00
47054;BME280;32811;52.382;5.270;2022-10-16T05:14:53;101041.78;;;11.57;100.00
47054;BME280;32811;52.382;5.270;2022-10-16T05:17:25;101048.69;;;11.64;100.00
47054;BME280;32811;52.382;5.270;2022-10-16T05:19:52;101053.03;;;11.66;100.00
47054;BME280;32811;52.382;5.270;2022-10-16T05:22:18;101066.78;;;11.63;100.00
47054;BME280;32811;52.382;5.270;2022-10-16T05:24:45;101060.75;;;11.59;100.00
47054;BME280;32811;52.382;5.270;2022-10-16T05:27:11;101072.84;;;11.68;100.00
47054;BME280;32811;52.382;5.270;2022-10-16T05:29:48;101076.28;;;11.66;100.00
47054;BME280;32811;52.382;5.270;2022-10-16T05:32:16;101083.19;;;11.68;100.00
47054;BME280;32811;52.382;5.270;2022-10-16T05:34:43;101086.66;;;11.70;100.00
47054;BME280;32811;52.382;5.270;2022-10-16T05:37:10;101073.72;;;11.70;100.00
47054;BME280;32811;52.382;5.270;2022-10-16T05:39:38;101082.31;;;11.66;100.00
47054;BME280;32811;52.382;5.270;2022-10-16T05:42:05;101096.09;;;11.70;100.00
47054;BME280;32811;52.382;5.270;2022-10-16T05:44:32;101085.78;;;11.68;100.00
47054;BME280;32811;52.382;5.270;2022-10-16T05:46:59;101084.06;;;11.66;100.00
47054;BME280;32811;52.382;5.270;2022-10-16T05:49:27;101069.41;;;11.68;100.00
47054;BME280;32811;52.382;5.270;2022-10-16T05:51:53;101082.31;;;11.69;100.00
47054;BME280;32811;52.382;5.270;2022-10-16T05:54:20;101082.31;;;11.66;100.00
47054;BME280;32811;52.382;5.270;2022-10-16T05:56:46;101106.44;;;11.70;100.00
47054;BME280;32811;52.382;5.270;2022-10-16T05:59:13;101097.84;;;11.69;100.00
47054;BME280;32811;52.382;5.270;2022-10-16T06:01:40;101115.06;;;11.67;100.00
47054;BME280;32811;52.382;5.270;2022-10-16T06:04:08;101109.91;;;11.66;100.00
47054;BME280;32811;52.382;5.270;2022-10-16T06:06:39;101113.34;;;11.66;100.00
47054;BME280;32811;52.382;5.270;2022-10-16T06:09:06;101120.22;;;11.64;100.00
47054;BME280;32811;52.382;5.270;2022-10-16T06:11:33;101126.25;;;11.63;100.00
47054;BME280;32811;52.382;5.270;2022-10-16T06:14:01;101124.53;;;11.63;100.00
47054;BME280;32811;52.382;5.270;2022-10-16T06:16:29;101123.69;;;11.69;100.00
47054;BME280;32811;52.382;5.270;2022-10-16T06:18:55;101111.63;;;11.67;100.00
47054;BME280;32811;52.382;5.270;2022-10-16T06:21:24;101103.03;;;11.72;100.00
47054;BME280;32811;52.382;5.270;2022-10-16T06:23:51;101106.47;;;11.68;100.00
47054;BME280;32811;52.382;5.270;2022-10-16T06:26:21;101096.09;;;11.65;100.00
47054;BME280;32811;52.382;5.270;2022-10-16T06:28:49;101101.28;;;11.67;100.00
47054;BME280;32811;52.382;5.270;2022-10-16T06:31:16;101105.56;;;11.64;100.00
47054;BME280;32811;52.382;5.270;2022-10-16T06:33:43;101113.34;;;11.66;100.00
47054;BME280;32811;52.382;5.270;2022-10-16T06:36:13;101114.22;;;11.68;100.00
47054;BME280;32811;52.382;5.270;2022-10-16T06:38:41;101114.19;;;11.65;100.00
47054;BME280;32811;52.382;5.270;2022-10-16T06:41:11;101125.41;;;11.67;100.00
47054;BME280;32811;52.382;5.270;2022-10-16T06:43:38;101132.34;;;11.73;100.00
47054;BME280;32811;52.382;5.270;2022-10-16T06:46:06;101137.53;;;11.80;100.00
47054;BME280;32811;52.382;5.270;2022-10-16T06:48:36;101129.78;;;11.79;100.00
47054;BME280;32811;52.382;5.270;2022-10-16T06:51:09;101152.22;;;11.81;100.00
47054;BME280;32811;52.382;5.270;2022-10-16T06:53:40;101162.53;;;11.80;100.00
47054;BME280;32811;52.382;5.270;2022-10-16T06:56:27;101155.63;;;11.80;100.00
47054;BME280;32811;52.382;5.270;2022-10-16T06:58:55;101162.53;;;11.83;100.00
47054;BME280;32811;52.382;5.270;2022-10-16T07:01:23;101163.38;;;11.77;100.00
47054;BME280;32811;52.382;5.270;2022-10-16T07:03:51;101158.25;;;11.83;100.00
47054;BME280;32811;52.382;5.270;2022-10-16T07:06:20;101171.25;;;11.88;100.00
47054;BME280;32811;52.382;5.270;2022-10-16T07:08:47;101177.19;;;11.81;100.00
47054;BME280;32811;52.382;5.270;2022-10-16T07:11:18;101184.97;;;11.84;100.00
47054;BME280;32811;52.382;5.270;2022-10-16T07:13:47;101179.78;;;11.79;100.00
47054;BME280;32811;52.382;5.270;2022-10-16T07:16:24;101189.28;;;11.83;100.00
47054;BME280;32811;52.382;5.270;2022-10-16T07:18:51;101200.50;;;11.84;100.00
47054;BME280;32811;52.382;5.270;2022-10-16T07:21:21;101206.53;;;11.84;100.00
47054;BME280;32811;52.382;5.270;2022-10-16T07:23:57;101204.81;;;11.87;100.00
47054;BME280;32811;52.382;5.270;2022-10-16T07:26:26;101220.38;;;11.88;100.00
47054;BME280;32811;52.382;5.270;2022-10-16T07:28:52;101224.69;;;11.91;100.00
47054;BME280;32811;52.382;5.270;2022-10-16T07:31:20;101224.66;;;11.88;100.00
47054;BME280;32811;52.382;5.270;2022-10-16T07:33:48;101241.03;;;11.87;100.00
47054;BME280;32811;52.382;5.270;2022-10-16T07:36:16;101236.69;;;11.82;100.00
47054;BME280;32811;52.382;5.270;2022-10-16T07:38:44;101237.50;;;11.75;100.00
47054;BME280;32811;52.382;5.270;2022-10-16T07:41:17;101251.34;;;11.82;100.00
47054;BME280;32811;52.382;5.270;2022-10-16T07:43:48;101253.09;;;11.84;100.00
47054;BME280;32811;52.382;5.270;2022-10-16T07:46:15;101255.75;;;11.94;100.00
47054;BME280;32811;52.382;5.270;2022-10-16T07:48:43;101252.25;;;11.86;100.00
47054;BME280;32811;52.382;5.270;2022-10-16T07:51:21;101266.94;;;11.94;100.00
47054;BME280;32811;52.382;5.270;2022-10-16T07:53:49;101254.88;;;11.92;100.00
47054;BME280;32811;52.382;5.270;2022-10-16T07:56:17;101273.09;;;12.09;100.00
47054;BME280;32811;52.382;5.270;2022-10-16T07:58:44;101275.72;;;12.22;100.00
47054;BME280;32811;52.382;5.270;2022-10-16T08:01:13;101270.56;;;12.19;100.00
47054;BME280;32811;52.382;5.270;2022-10-16T08:03:45;101276.63;;;12.29;100.00
47054;BME280;32811;52.382;5.270;2022-10-16T08:06:12;101287.06;;;12.41;100.00
47054;BME280;32811;52.382;5.270;2022-10-16T08:08:38;101287.91;;;12.46;100.00
47054;BME280;32811;52.382;5.270;2022-10-16T08:11:05;101287.09;;;12.60;100.00
47054;BME280;32811;52.382;5.270;2022-10-16T08:13:31;101298.34;;;12.62;100.00
47054;BME280;32811;52.382;5.270;2022-10-16T08:15:58;101300.91;;;12.68;100.00
47054;BME280;32811;52.382;5.270;2022-10-16T08:18:25;101292.31;;;12.61;100.00
47054;BME280;32811;52.382;5.270;2022-10-16T08:20:57;101309.59;;;12.73;100.00
47054;BME280;32811;52.382;5.270;2022-10-16T08:23:24;101300.09;;;12.75;100.00
47054;BME280;32811;52.382;5.270;2022-10-16T08:25:53;101301.84;;;12.78;100.00
47054;BME280;32811;52.382;5.270;2022-10-16T08:28:20;101311.34;;;12.88;100.00
47054;BME280;32811;52.382;5.270;2022-10-16T08:30:47;101298.41;;;12.82;100.00
47054;BME280;32811;52.382;5.270;2022-10-16T08:33:14;101319.13;;;12.90;100.00
47054;BME280;32811;52.382;5.270;2022-10-16T08:35:40;101322.56;;;12.87;100.00
47054;BME280;32811;52.382;5.270;2022-10-16T08:38:07;101325.19;;;12.98;100.00
47054;BME280;32811;52.382;5.270;2022-10-16T08:40:36;101323.47;;;13.00;100.00
47054;BME280;32811;52.382;5.270;2022-10-16T08:49:11;101333.09;;;13.53;100.00
47054;BME280;32811;52.382;5.270;2022-10-16T08:51:40;101344.31;;;13.74;100.00
47054;BME280;32811;52.382;5.270;2022-10-16T08:54:23;101355.56;;;13.71;100.00
47054;BME280;32811;52.382;5.270;2022-10-16T08:56:55;101337.41;;;13.49;100.00
47054;BME280;32811;52.382;5.270;2022-10-16T08:59:22;101359.88;;;13.55;100.00
47054;BME280;32811;52.382;5.270;2022-10-16T09:01:50;101367.63;;;13.41;100.00
47054;BME280;32811;52.382;5.270;2022-10-16T09:15:40;101391.84;;;13.63;100.00
47054;BME280;32811;52.382;5.270;2022-10-16T09:18:47;101384.97;;;13.78;100.00
47054;BME280;32811;52.382;5.270;2022-10-16T09:23:47;101402.25;;;13.85;100.00
47054;BME280;32811;52.382;5.270;2022-10-16T09:26:15;101403.97;;;13.90;100.00
47054;BME280;32811;52.382;5.270;2022-10-16T09:28:43;101408.28;;;14.15;100.00
47054;BME280;32811;52.382;5.270;2022-10-16T09:31:18;101406.50;;;14.35;100.00
47054;BME280;32811;52.382;5.270;2022-10-16T09:33:50;101413.44;;;14.41;100.00
47054;BME280;32811;52.382;5.270;2022-10-16T09:36:19;101416.91;;;14.30;100.00
47054;BME280;32811;52.382;5.270;2022-10-16T09:38:46;101419.50;;;14.26;100.00
47054;BME280;32811;52.382;5.270;2022-10-16T09:43:55;101422.94;;;14.48;100.00
47054;BME280;32811;52.382;5.270;2022-10-16T09:46:34;101412.53;;;14.54;100.00
47054;BME280;32811;52.382;5.270;2022-10-16T09:49:04;101412.53;;;14.62;100.00
47054;BME280;32811;52.382;5.270;2022-10-16T09:51:36;101412.53;;;14.63;100.00
47054;BME280;32811;52.382;5.270;2022-10-16T09:56:37;101422.91;;;14.71;100.00
47054;BME280;32811;52.382;5.270;2022-10-16T09:59:23;101418.53;;;14.78;100.00
47054;BME280;32811;52.382;5.270;2022-10-16T10:01:52;101421.16;;;14.74;100.00
47054;BME280;32811;52.382;5.270;2022-10-16T10:04:22;101420.28;;;14.80;100.00
47054;BME280;32811;52.382;5.270;2022-10-16T10:06:54;101424.56;;;14.98;100.00
47054;BME280;32811;52.382;5.270;2022-10-16T10:09:31;101426.19;;;15.13;100.00
47054;BME280;32811;52.382;5.270;2022-10-16T10:12:00;101420.97;;;15.21;100.00
47054;BME280;32811;52.382;5.270;2022-10-16T10:17:10;101442.59;;;15.27;100.00
47054;BME280;32811;52.382;5.270;2022-10-16T10:19:49;101437.28;;;15.44;100.00
47054;BME280;32811;52.382;5.270;2022-10-16T10:22:30;101438.22;;;15.34;100.00
47054;BME280;32811;52.382;5.270;2022-10-16T10:30:27;101459.91;;;15.36;100.00
47054;BME280;32811;52.382;5.270;2022-10-16T10:33:54;101457.28;;;15.31;100.00
47054;BME280;32811;52.382;5.270;2022-10-16T10:38:58;101471.13;;;15.41;100.00
47054;BME280;32811;52.382;5.270;2022-10-16T10:44:44;101481.47;;;15.53;100.00
47054;BME280;32811;52.382;5.270;2022-10-16T10:50:03;101487.66;;;15.32;100.00
47054;BME280;32811;52.382;5.270;2022-10-16T11:01:00;101486.78;;;15.29;100.00
47054;BME280;32811;52.382;5.270;2022-10-16T11:06:47;101514.56;;;15.24;100.00
47054;BME280;32811;52.382;5.270;2022-10-16T11:09:26;101525.84;;;15.20;100.00
47054;BME280;32811;52.382;5.270;2022-10-16T11:12:00;101515.34;;;15.40;100.00
47054;BME280;32811;52.382;5.270;2022-10-16T11:17:13;101511.09;;;15.22;100.00
47054;BME280;32811;52.382;5.270;2022-10-16T11:30:28;101518.88;;;15.31;100.00
47054;BME280;32811;52.382;5.270;2022-10-16T11:36:07;101536.97;;;15.55;100.00
47054;BME280;32811;52.382;5.270;2022-10-16T11:41:27;101529.09;;;15.72;100.00
47054;BME280;32811;52.382;5.270;2022-10-16T11:44:25;101529.03;;;15.80;100.00
47054;BME280;32811;52.382;5.270;2022-10-16T11:56:18;101538.59;;;15.78;100.00
47054;BME280;32811;52.382;5.270;2022-10-16T12:01:25;101542.13;;;15.68;100.00
47054;BME280;32811;52.382;5.270;2022-10-16T12:04:02;101549.91;;;15.77;100.00
47054;BME280;32811;52.382;5.270;2022-10-16T12:06:39;101531.63;;;15.86;100.00
47054;BME280;32811;52.382;5.270;2022-10-16T12:09:15;101540.34;;;15.76;100.00
47054;BME280;32811;52.382;5.270;2022-10-16T12:11:45;101536.91;;;15.72;100.00
47054;BME280;32811;52.382;5.270;2022-10-16T12:16:39;101554.16;;;15.87;100.00
47054;BME280;32811;52.382;5.270;2022-10-16T12:19:17;101556.78;;;15.83;100.00
47054;BME280;32811;52.382;5.270;2022-10-16T12:21:45;101562.84;;;15.86;100.00
47054;BME280;32811;52.382;5.270;2022-10-16T12:26:52;101569.03;;;15.62;100.00
47054;BME280;32811;52.382;5.270;2022-10-16T12:29:37;101565.53;;;15.66;100.00
47054;BME280;32811;52.382;5.270;2022-10-16T12:32:37;101575.09;;;15.60;100.00
47054;BME280;32811;52.382;5.270;2022-10-16T12:35:26;101578.59;;;15.55;100.00
47054;BME280;32811;52.382;5.270;2022-10-16T12:37:54;101574.19;;;15.68;100.00
47054;BME280;32811;52.382;5.270;2022-10-16T12:40:25;101581.13;;;15.69;100.00
47054;BME280;32811;52.382;5.270;2022-10-16T12:42:53;101565.53;;;15.66;100.00
47054;BME280;32811;52.382;5.270;2022-10-16T12:45:29;101584.63;;;15.70;100.00
47054;BME280;32811;52.382;5.270;2022-10-16T12:47:59;101583.75;;;15.71;100.00
47054;BME280;32811;52.382;5.270;2022-10-16T12:50:33;101581.97;;;15.85;100.00
47054;BME280;32811;52.382;5.270;2022-10-16T12:53:01;101583.72;;;15.83;100.00
47054;BME280;32811;52.382;5.270;2022-10-16T12:55:40;101588.09;;;15.75;100.00
47054;BME280;32811;52.382;5.270;2022-10-16T12:58:38;101588.94;;;15.79;100.00
47054;BME280;32811;52.382;5.270;2022-10-16T13:01:34;101586.34;;;15.75;100.00
47054;BME280;32811;52.382;5.270;2022-10-16T13:04:25;101590.66;;;15.81;100.00
47054;BME280;32811;52.382;5.270;2022-10-16T13:07:19;101599.31;;;15.80;100.00
47054;BME280;32811;52.382;5.270;2022-10-16T13:09:57;101596.78;;;15.72;100.00
47054;BME280;32811;52.382;5.270;2022-10-16T13:12:57;101596.72;;;15.82;100.00
47054;BME280;32811;52.382;5.270;2022-10-16T13:21:25;101599.44;;;15.46;100.00
47054;BME280;32811;52.382;5.270;2022-10-16T13:24:01;101602.94;;;15.45;100.00
47054;BME280;32811;52.382;5.270;2022-10-16T13:29:32;101599.44;;;15.46;100.00
47054;BME280;32811;52.382;5.270;2022-10-16T13:32:01;101607.28;;;15.39;100.00
47054;BME280;32811;52.382;5.270;2022-10-16T13:34:33;101601.22;;;15.36;100.00
47054;BME280;32811;52.382;5.270;2022-10-16T13:37:15;101621.19;;;15.30;100.00
47054;BME280;32811;52.382;5.270;2022-10-16T13:39:42;101605.59;;;15.25;100.00
47054;BME280;32811;52.382;5.270;2022-10-16T13:42:12;101615.94;;;15.42;100.00
47054;BME280;32811;52.382;5.270;2022-10-16T13:44:46;101604.69;;;15.39;100.00
47054;BME280;32811;52.382;5.270;2022-10-16T13:47:21;101608.13;;;15.44;100.00
47054;BME280;32811;52.382;5.270;2022-10-16T13:49:59;101623.75;;;15.39;100.00
47054;BME280;32811;52.382;5.270;2022-10-16T13:52:27;101633.31;;;15.39;100.00
47054;BME280;32811;52.382;5.270;2022-10-16T13:54:54;101629.00;;;15.21;100.00
47054;BME280;32811;52.382;5.270;2022-10-16T13:57:27;101635.06;;;15.24;100.00
47054;BME280;32811;52.382;5.270;2022-10-16T13:59:54;101644.59;;;15.27;100.00
47054;BME280;32811;52.382;5.270;2022-10-16T14:02:35;101641.09;;;15.35;100.00
47054;BME280;32811;52.382;5.270;2022-10-16T14:05:04;101635.03;;;15.35;100.00
47054;BME280;32811;52.382;5.270;2022-10-16T14:07:34;101637.63;;;15.43;100.00
47054;BME280;32811;52.382;5.270;2022-10-16T14:10:05;101638.47;;;15.48;100.00
47054;BME280;32811;52.382;5.270;2022-10-16T14:12:34;101633.31;;;15.32;100.00
47054;BME280;32811;52.382;5.270;2022-10-16T14:15:01;101635.91;;;15.25;100.00
47054;BME280;32811;52.382;5.270;2022-10-16T14:17:30;101647.19;;;15.27;100.00
47054;BME280;32811;52.382;5.270;2022-10-16T14:19:59;101644.59;;;15.30;100.00
47054;BME280;32811;52.382;5.270;2022-10-16T14:22:40;101643.69;;;15.35;100.00
47054;BME280;32811;52.382;5.270;2022-10-16T14:27:58;101643.72;;;15.37;100.00
47054;BME280;32811;52.382;5.270;2022-10-16T14:30:26;101634.16;;;15.33;100.00
47054;BME280;32811;52.382;5.270;2022-10-16T14:32:59;101635.91;;;15.34;100.00
47054;BME280;32811;52.382;5.270;2022-10-16T14:35:33;101640.28;;;15.27;100.00
47054;BME280;32811;52.382;5.270;2022-10-16T14:38:02;101639.41;;;15.25;100.00
47054;BME280;32811;52.382;5.270;2022-10-16T14:40:35;101642.88;;;15.20;100.00
47054;BME280;32811;52.382;5.270;2022-10-16T14:43:04;101639.41;;;15.14;100.00
47054;BME280;32811;52.382;5.270;2022-10-16T14:45:32;101639.44;;;15.08;100.00
47054;BME280;32811;52.382;5.270;2022-10-16T14:48:03;101637.69;;;15.04;100.00
47054;BME280;32811;52.382;5.270;2022-10-16T14:50:32;101656.78;;;14.97;100.00
47054;BME280;32811;52.382;5.270;2022-10-16T14:52:58;101648.13;;;14.92;100.00
47054;BME280;32811;52.382;5.270;2022-10-16T14:55:25;101655.03;;;14.90;100.00
47054;BME280;32811;52.382;5.270;2022-10-16T14:57:52;101652.44;;;14.88;100.00